AEP weather

Jorge Newbery Airpark
Buenos Aires, Capital federal, Argentina

Public forecast

Using degrees Celsius for public forecast. Weather courtesy of forecast.io.

Current aviation weather report (METAR) for Jorge Newbery Airpark

Retrieved 2019/11/13 11:00 UTC (29 minutes ago):

SABE 131100Z 06005KT CAVOK 24/21 Q1009 NOSIG

Aviation forecast (TAF) for Jorge Newbery Airpark

Retrieved 2019/11/13 06:00 UTC (5 hours ago):

TAF SABE 130500Z 1306/1406 VRB05KT CAVOK TX28/1318Z TN19/1309Z BECMG 1315/1318 07010KT 9999 SCT035 BKN100 PRO30 TEMPO 1317/1321 FEW050TCU BECMG 1322/1401 VRB03KT CAVOK